createdAt,value
2022-10-11T00:00:11.128Z,6.72
2022-10-11T00:02:38.096Z,9.43
2022-10-11T00:05:05.424Z,6.85
2022-10-11T00:07:32.386Z,6.53
2022-10-11T00:09:59.337Z,6.32
2022-10-11T00:12:26.326Z,6.53
2022-10-11T00:14:53.275Z,7.07
2022-10-11T00:17:20.230Z,5.95
2022-10-11T00:19:47.223Z,5.93
2022-10-11T00:22:14.274Z,7.60
2022-10-11T00:24:41.276Z,6.53
2022-10-11T00:27:08.359Z,6.72
2022-10-11T00:29:36.920Z,9.95
2022-10-11T00:32:04.213Z,6.78
2022-10-11T00:34:31.182Z,5.97
2022-10-11T00:36:58.177Z,6.65
2022-10-11T00:39:25.159Z,6.78
2022-10-11T00:41:52.160Z,7.43
2022-10-11T00:44:24.000Z,7.80
2022-10-11T00:46:59.735Z,6.53
2022-10-11T00:49:32.712Z,6.10
2022-10-11T00:52:29.089Z,6.65
2022-10-11T00:54:58.361Z,7.60
2022-10-11T00:57:29.602Z,6.55
2022-10-11T00:59:56.992Z,6.63
2022-10-11T01:02:24.888Z,8.13
2022-10-11T01:05:11.297Z,6.38
2022-10-11T01:07:40.979Z,6.65
2022-10-11T01:10:08.248Z,7.10
2022-10-11T01:12:36.018Z,9.52
2022-10-11T01:15:20.634Z,7.35
2022-10-11T01:18:05.491Z,8.52
2022-10-11T01:20:45.841Z,7.65
2022-10-11T01:23:41.823Z,7.45
2022-10-11T01:26:26.724Z,7.70
2022-10-11T01:29:05.704Z,9.65
2022-10-11T01:31:42.327Z,9.32
2022-10-11T01:34:23.875Z,7.68
2022-10-11T01:36:56.826Z,13.90
2022-10-11T01:39:32.837Z,8.13
2022-10-11T01:42:04.530Z,8.32
2022-10-11T01:44:34.657Z,9.13
2022-10-11T01:47:01.608Z,7.28
2022-10-11T01:49:28.614Z,10.00
2022-10-11T01:51:58.413Z,9.88
2022-10-11T01:57:36.148Z,7.43
2022-10-11T02:00:17.376Z,11.45
2022-10-11T02:03:12.777Z,9.60
2022-10-11T02:05:45.100Z,10.77
2022-10-11T02:08:36.853Z,7.53
2022-10-11T02:11:38.919Z,8.07
2022-10-11T02:14:23.369Z,22.75
2022-10-11T02:17:12.371Z,11.50
2022-10-11T02:19:44.694Z,10.93
2022-10-11T02:22:24.762Z,10.93
2022-10-11T02:24:56.407Z,12.05
2022-10-11T02:27:28.425Z,10.38
2022-10-11T02:29:59.886Z,11.35
2022-10-11T02:32:29.599Z,16.75
2022-10-11T02:34:59.259Z,12.30
2022-10-11T02:37:47.567Z,8.40
2022-10-11T02:40:25.992Z,9.15
2022-10-11T02:43:01.700Z,9.93
2022-10-11T02:45:50.439Z,9.27
2022-10-11T02:48:18.319Z,11.55
2022-10-11T02:50:45.683Z,8.38
2022-10-11T02:53:12.661Z,10.65
2022-10-11T02:55:39.691Z,11.57
2022-10-11T02:58:06.715Z,10.80
2022-10-11T03:00:33.684Z,14.07
2022-10-11T03:03:00.655Z,10.48
2022-10-11T03:05:27.674Z,13.52
2022-10-11T03:07:54.626Z,19.83
2022-10-11T03:10:21.759Z,10.80
2022-10-11T03:12:48.841Z,10.05
2022-10-11T03:15:15.889Z,13.50
2022-10-11T03:17:42.880Z,11.38
2022-10-11T03:20:10.247Z,10.10
2022-10-11T03:22:37.317Z,11.70
2022-10-11T03:25:05.015Z,13.13
2022-10-11T03:27:33.464Z,12.98
2022-10-11T03:30:00.752Z,11.15
2022-10-11T03:32:27.904Z,10.65
2022-10-11T03:34:54.917Z,10.43
2022-10-11T03:37:21.955Z,11.38
2022-10-11T03:39:48.979Z,15.40
2022-10-11T03:42:15.997Z,13.40
2022-10-11T03:44:42.945Z,8.85
2022-10-11T03:47:10.347Z,13.60
2022-10-11T03:49:42.623Z,12.13
2022-10-11T03:52:11.579Z,11.95
2022-10-11T03:54:38.637Z,14.18
2022-10-11T03:57:05.690Z,13.60
2022-10-11T03:59:32.722Z,10.95
2022-10-11T04:01:59.919Z,10.48
2022-10-11T04:04:26.974Z,10.75
2022-10-11T04:06:54.031Z,12.40
2022-10-11T04:09:21.146Z,10.13
2022-10-11T04:11:48.086Z,18.13
2022-10-11T04:14:15.311Z,15.77
2022-10-11T04:16:42.302Z,12.55
2022-10-11T04:19:09.347Z,12.05
2022-10-11T04:21:36.306Z,12.43
2022-10-11T04:24:03.431Z,14.60
2022-10-11T04:26:30.625Z,12.07
2022-10-11T04:28:57.792Z,16.60
2022-10-11T04:31:25.223Z,14.55
2022-10-11T04:33:52.551Z,12.15
2022-10-11T04:36:19.493Z,14.63
2022-10-11T04:38:46.471Z,13.18
2022-10-11T04:41:14.895Z,14.60
2022-10-11T04:43:41.891Z,16.10
2022-10-11T04:46:11.068Z,16.02
2022-10-11T04:48:38.725Z,14.02
2022-10-11T04:51:05.872Z,11.48
2022-10-11T04:53:32.868Z,13.35
2022-10-11T04:56:05.363Z,11.35
2022-10-11T04:58:34.784Z,17.52
2022-10-11T05:01:02.022Z,12.80
2022-10-11T05:03:29.182Z,20.00
2022-10-11T05:05:56.429Z,16.33
2022-10-11T05:08:24.564Z,13.23
2022-10-11T05:11:00.083Z,14.60
2022-10-11T05:13:28.673Z,13.77
2022-10-11T05:15:55.784Z,13.65
2022-10-11T05:18:24.274Z,16.10
2022-10-11T05:21:05.017Z,16.27
2022-10-11T05:23:34.805Z,15.15
2022-10-11T05:26:03.322Z,13.15
2022-10-11T05:28:31.083Z,15.40
2022-10-11T05:30:58.341Z,13.88
2022-10-11T05:33:26.085Z,18.00
2022-10-11T05:35:53.289Z,21.20
2022-10-11T05:38:20.329Z,21.35
2022-10-11T05:40:47.328Z,21.25
2022-10-11T05:43:14.344Z,19.85
2022-10-11T05:45:43.752Z,18.27
2022-10-11T05:48:11.496Z,20.92
2022-10-11T05:50:39.962Z,20.98
2022-10-11T05:53:07.176Z,21.17
2022-10-11T05:55:41.837Z,18.08
2022-10-11T05:58:13.445Z,15.73
2022-10-11T06:00:41.030Z,16.73
2022-10-11T06:03:11.089Z,18.73
2022-10-11T06:05:38.958Z,21.55
2022-10-11T06:08:06.830Z,30.60
2022-10-11T06:10:34.100Z,22.08
2022-10-11T06:13:01.739Z,20.83
2022-10-11T06:15:28.742Z,17.55
2022-10-11T06:17:55.819Z,16.05
2022-10-11T06:20:22.780Z,16.50
2022-10-11T06:22:49.784Z,19.10
2022-10-11T06:25:16.882Z,17.30
2022-10-11T06:27:44.091Z,17.48
2022-10-11T06:30:11.283Z,23.08
2022-10-11T06:32:38.264Z,15.93
2022-10-11T06:35:06.471Z,21.75
2022-10-11T06:37:33.515Z,18.88
2022-10-11T06:40:00.675Z,18.08
2022-10-11T06:42:27.667Z,23.20
2022-10-11T06:44:55.391Z,17.65
2022-10-11T06:47:22.358Z,21.90
2022-10-11T06:49:49.342Z,21.35
2022-10-11T06:52:16.367Z,17.88
2022-10-11T06:54:44.981Z,13.57
2022-10-11T06:57:12.319Z,18.42
2022-10-11T06:59:39.425Z,16.35
2022-10-11T07:02:07.553Z,16.98
2022-10-11T07:04:34.574Z,19.58
2022-10-11T07:07:01.566Z,19.45
2022-10-11T07:09:28.628Z,15.55
2022-10-11T07:11:55.845Z,18.17
2022-10-11T07:14:22.832Z,14.82
2022-10-11T07:16:50.110Z,14.77
2022-10-11T07:19:17.068Z,15.52
2022-10-11T07:21:44.106Z,14.60
2022-10-11T07:24:11.112Z,16.58
2022-10-11T07:26:39.344Z,15.57
2022-10-11T07:29:07.841Z,15.30
2022-10-11T07:31:36.638Z,16.35
2022-10-11T07:34:03.707Z,17.20
2022-10-11T07:36:30.799Z,16.35
2022-10-11T07:38:57.878Z,14.40
2022-10-11T07:41:24.854Z,15.65
2022-10-11T07:43:51.894Z,14.70
2022-10-11T07:46:19.109Z,23.75
2022-10-11T07:48:46.195Z,16.35
2022-10-11T07:51:16.061Z,12.18
2022-10-11T07:53:45.384Z,13.70
2022-10-11T07:56:16.345Z,17.83
2022-10-11T07:58:43.705Z,14.20
2022-10-11T08:01:11.902Z,14.15
2022-10-11T08:03:39.476Z,12.68
2022-10-11T08:06:09.455Z,14.63
2022-10-11T08:08:38.110Z,14.65
2022-10-11T08:11:06.291Z,11.48
2022-10-11T08:13:34.514Z,13.60
2022-10-11T08:16:09.944Z,11.27
2022-10-11T08:18:38.592Z,12.10
2022-10-11T08:21:16.231Z,13.15
2022-10-11T08:23:43.367Z,12.27
2022-10-11T08:26:11.038Z,12.57
2022-10-11T08:28:38.338Z,11.80
2022-10-11T08:31:06.108Z,13.30
2022-10-11T08:33:33.097Z,14.20
2022-10-11T08:36:04.838Z,17.70
2022-10-11T08:38:32.889Z,14.47
2022-10-11T08:41:01.158Z,12.30
2022-10-11T08:43:39.956Z,14.00
2022-10-11T08:46:10.145Z,13.13
2022-10-11T08:48:46.797Z,14.53
2022-10-11T08:51:23.415Z,13.83
2022-10-11T08:53:57.335Z,13.27
2022-10-11T08:56:25.804Z,11.63
2022-10-11T08:59:11.648Z,21.07
2022-10-11T09:01:48.027Z,12.90
2022-10-11T09:04:16.116Z,12.23
2022-10-11T09:06:49.855Z,12.37
2022-10-11T09:09:35.566Z,13.97
2022-10-11T09:12:02.569Z,12.97
2022-10-11T09:14:29.496Z,12.67
2022-10-11T09:17:14.703Z,13.30
2022-10-11T09:19:55.508Z,14.97
2022-10-11T09:22:43.479Z,11.67
2022-10-11T09:25:28.485Z,13.27
2022-10-11T09:28:29.426Z,14.03
2022-10-11T09:30:58.429Z,17.67
2022-10-11T09:33:37.192Z,8.23
2022-10-11T09:36:21.805Z,12.37
2022-10-11T09:39:12.225Z,10.63
2022-10-11T09:41:48.830Z,9.13
2022-10-11T09:44:27.688Z,11.43
2022-10-11T09:46:57.032Z,9.33
2022-10-11T09:49:40.473Z,12.43
2022-10-11T09:52:15.154Z,8.57
2022-10-11T09:54:45.161Z,16.30
2022-10-11T09:57:30.595Z,14.23
2022-10-11T10:00:22.660Z,11.90
2022-10-11T10:02:51.233Z,7.80
2022-10-11T10:05:20.409Z,12.67
2022-10-11T10:08:09.767Z,14.43
2022-10-11T10:10:42.786Z,8.00
2022-10-11T10:13:21.908Z,8.73
2022-10-11T10:15:52.133Z,8.17
2022-10-11T10:18:28.498Z,11.73
2022-10-11T10:20:59.728Z,12.37
2022-10-11T10:23:36.431Z,10.07
2022-10-11T10:26:17.548Z,8.73
2022-10-11T10:29:10.799Z,8.03
2022-10-11T10:32:13.943Z,12.90
2022-10-11T10:34:55.153Z,11.30
2022-10-11T10:37:51.404Z,9.73
2022-10-11T10:40:48.394Z,10.40
2022-10-11T10:43:18.185Z,14.33
2022-10-11T10:46:03.967Z,7.73
2022-10-11T10:49:19.134Z,6.60
2022-10-11T10:51:52.875Z,6.80
2022-10-11T10:54:25.980Z,9.87
2022-10-11T10:56:57.574Z,7.37
2022-10-11T10:59:52.435Z,5.50
2022-10-11T11:02:40.315Z,7.00
2022-10-11T11:05:48.893Z,5.60
2022-10-11T11:08:20.870Z,6.53
2022-10-11T11:10:58.266Z,7.40
2022-10-11T11:14:02.922Z,6.50
2022-10-11T11:16:38.789Z,10.20
2022-10-11T11:19:11.464Z,10.83
2022-10-11T11:21:41.484Z,5.53
2022-10-11T11:24:21.062Z,9.50
2022-10-11T11:27:05.364Z,7.87
2022-10-11T11:29:55.342Z,6.10
2022-10-11T11:32:45.433Z,8.17
2022-10-11T11:35:24.922Z,6.47
2022-10-11T11:38:02.483Z,4.73
2022-10-11T11:40:45.902Z,10.10
2022-10-11T11:43:24.664Z,9.03
2022-10-11T11:45:59.213Z,7.90
2022-10-11T11:48:27.634Z,9.17
2022-10-11T11:51:06.291Z,11.57
2022-10-11T11:53:48.606Z,5.80
2022-10-11T11:56:15.642Z,7.47
2022-10-11T11:58:59.985Z,8.00
2022-10-11T12:01:37.705Z,12.20
2022-10-11T12:04:22.782Z,7.40
2022-10-11T12:07:16.020Z,7.77
2022-10-11T12:09:50.785Z,5.13
2022-10-11T12:12:38.324Z,8.00
2022-10-11T12:15:54.514Z,5.73
2022-10-11T12:18:22.187Z,4.83
2022-10-11T12:21:08.893Z,8.83
2022-10-11T12:23:43.765Z,7.03
2022-10-11T12:26:28.984Z,6.20
2022-10-11T12:29:17.214Z,6.60
2022-10-11T12:31:47.813Z,10.43
2022-10-11T12:34:32.386Z,9.57
2022-10-11T12:37:03.203Z,5.90
2022-10-11T12:39:46.789Z,6.60
2022-10-11T12:42:32.245Z,7.07
2022-10-11T12:45:14.483Z,5.20
2022-10-11T12:47:51.796Z,7.07
2022-10-11T12:50:34.674Z,5.43
2022-10-11T12:53:10.483Z,6.70
2022-10-11T12:56:04.582Z,4.20
2022-10-11T12:58:46.601Z,6.80
2022-10-11T13:01:22.260Z,5.20
2022-10-11T13:04:01.615Z,7.87
2022-10-11T13:06:33.833Z,5.50
2022-10-11T13:09:21.083Z,5.83
2022-10-11T13:12:04.484Z,4.20
2022-10-11T13:14:37.875Z,5.53
2022-10-11T13:17:20.185Z,7.00
2022-10-11T13:19:51.317Z,5.57
2022-10-11T13:22:22.081Z,9.03
2022-10-11T13:24:49.674Z,9.37
2022-10-11T13:27:21.505Z,6.80
2022-10-11T13:29:51.667Z,8.60
2022-10-11T13:32:24.389Z,6.13
2022-10-11T13:34:57.548Z,4.97
2022-10-11T13:37:29.361Z,4.20
2022-10-11T13:39:57.652Z,6.27
2022-10-11T13:42:34.051Z,8.60
2022-10-11T13:45:01.900Z,8.20
2022-10-11T13:47:31.952Z,6.63
2022-10-11T13:50:17.389Z,9.23
2022-10-11T13:52:59.243Z,4.40
2022-10-11T13:55:26.322Z,4.43
2022-10-11T13:57:54.646Z,7.97
2022-10-11T14:00:34.784Z,3.57
2022-10-11T14:03:14.092Z,6.57
2022-10-11T14:05:44.085Z,12.70
2022-10-11T14:08:35.914Z,7.73
2022-10-11T14:11:06.462Z,9.00
2022-10-11T14:13:50.381Z,10.73
2022-10-11T14:16:20.504Z,8.70
2022-10-11T14:18:51.791Z,5.67
2022-10-11T14:21:30.805Z,13.30
2022-10-11T14:24:07.717Z,9.50
2022-10-11T14:26:44.502Z,4.47
2022-10-11T14:29:36.096Z,3.67
2022-10-11T14:32:12.128Z,8.43
2022-10-11T14:34:39.219Z,4.77
2022-10-11T14:37:06.679Z,7.93
2022-10-11T14:39:34.231Z,5.30
2022-10-11T14:42:01.241Z,8.33
2022-10-11T14:44:28.639Z,9.40
2022-10-11T14:46:55.729Z,11.50
2022-10-11T14:49:25.373Z,6.20
2022-10-11T14:51:54.260Z,6.37
2022-10-11T14:54:23.659Z,6.83
2022-10-11T14:56:52.724Z,12.20
2022-10-11T14:59:22.401Z,6.60
2022-10-11T15:01:52.113Z,9.67
2022-10-11T15:04:23.888Z,7.03
2022-10-11T15:06:52.391Z,9.60
2022-10-11T15:09:23.017Z,7.10
2022-10-11T15:11:52.886Z,7.50
2022-10-11T15:14:19.845Z,14.80
2022-10-11T15:16:47.328Z,13.93
2022-10-11T15:19:22.239Z,8.00
2022-10-11T15:21:49.647Z,15.70
2022-10-11T15:24:20.090Z,17.30
2022-10-11T15:26:48.345Z,9.07
2022-10-11T15:29:17.890Z,8.83
2022-10-11T15:31:46.298Z,11.03
2022-10-11T15:34:13.382Z,11.83
2022-10-11T15:36:40.492Z,10.60
2022-10-11T15:39:34.041Z,16.80
2022-10-11T15:42:01.267Z,12.30
2022-10-11T15:44:28.297Z,15.20
2022-10-11T15:46:55.270Z,11.70
2022-10-11T15:49:22.454Z,11.13
2022-10-11T15:51:49.575Z,10.70
2022-10-11T15:54:16.583Z,15.33
2022-10-11T15:56:45.194Z,15.97
2022-10-11T15:59:12.573Z,13.87
2022-10-11T16:01:39.964Z,13.97
2022-10-11T16:04:07.049Z,11.33
2022-10-11T16:06:34.037Z,14.30
2022-10-11T16:09:00.976Z,14.73
2022-10-11T16:11:28.135Z,20.30
2022-10-11T16:13:55.201Z,13.50
2022-10-11T16:16:22.149Z,11.97
2022-10-11T16:18:51.155Z,15.53
2022-10-11T16:21:18.188Z,13.60
2022-10-11T16:23:45.343Z,14.60
2022-10-11T16:26:16.634Z,10.00
2022-10-11T16:28:44.098Z,16.33
2022-10-11T16:31:14.876Z,10.37
2022-10-11T16:33:48.156Z,14.17
2022-10-11T16:36:35.893Z,17.10
2022-10-11T16:39:08.541Z,15.20
2022-10-11T16:41:35.882Z,14.23
2022-10-11T16:44:03.800Z,11.30
2022-10-11T16:46:33.537Z,13.17
2022-10-11T16:49:00.584Z,12.10
2022-10-11T16:51:27.638Z,12.87
2022-10-11T16:53:54.653Z,12.73
2022-10-11T16:56:24.493Z,10.70
2022-10-11T16:58:53.227Z,12.33
2022-10-11T17:01:20.793Z,14.23
2022-10-11T17:03:49.992Z,11.33
2022-10-11T17:06:17.088Z,9.33
2022-10-11T17:08:44.110Z,9.60
2022-10-11T17:11:11.126Z,15.03
2022-10-11T17:13:38.097Z,9.73
2022-10-11T17:16:05.725Z,16.87
2022-10-11T17:18:32.997Z,14.77
2022-10-11T17:21:07.406Z,10.83
2022-10-11T17:23:35.718Z,10.60
2022-10-11T17:26:11.201Z,8.87
2022-10-11T17:28:39.061Z,11.23
2022-10-11T17:31:08.177Z,11.67
2022-10-11T17:33:35.926Z,9.50
2022-10-11T17:36:30.730Z,10.97
2022-10-11T17:39:00.023Z,11.53
2022-10-11T17:41:31.865Z,8.50
2022-10-11T17:43:59.752Z,14.17
2022-10-11T17:46:28.432Z,7.83
2022-10-11T17:48:56.380Z,9.20
2022-10-11T17:51:23.732Z,11.97
2022-10-11T17:53:51.698Z,13.67
2022-10-11T17:56:27.614Z,15.23
2022-10-11T17:58:57.744Z,22.53
2022-10-11T18:01:27.322Z,14.33
2022-10-11T18:03:57.960Z,16.33
2022-10-11T18:06:29.086Z,14.23
2022-10-11T18:08:57.418Z,14.03
2022-10-11T18:11:25.013Z,10.60
2022-10-11T18:13:54.154Z,9.77
2022-10-11T18:16:24.430Z,9.87
2022-10-11T18:18:51.579Z,8.90
2022-10-11T18:21:19.666Z,8.90
2022-10-11T18:23:47.460Z,8.03
2022-10-11T18:26:15.108Z,12.93
2022-10-11T18:28:44.186Z,17.90
2022-10-11T18:31:14.977Z,9.73
2022-10-11T18:33:43.727Z,9.70
2022-10-11T18:36:14.250Z,10.73
2022-10-11T18:38:46.806Z,9.63
2022-10-11T18:41:16.919Z,7.80
2022-10-11T18:43:49.039Z,8.47
2022-10-11T18:46:16.351Z,10.43
2022-10-11T18:48:45.593Z,8.00
2022-10-11T18:51:19.255Z,13.90
2022-10-11T18:53:48.115Z,10.87
2022-10-11T18:56:17.493Z,12.10
2022-10-11T18:58:45.577Z,13.50
2022-10-11T19:01:18.361Z,9.10
2022-10-11T19:03:48.390Z,11.93
2022-10-11T19:06:18.913Z,13.70
2022-10-11T19:08:51.251Z,10.87
2022-10-11T19:11:23.475Z,18.93
2022-10-11T19:14:09.161Z,13.80
2022-10-11T19:16:39.326Z,15.20
2022-10-11T19:19:07.414Z,8.37
2022-10-11T19:21:34.665Z,9.63
2022-10-11T19:24:01.901Z,18.33
2022-10-11T19:26:33.548Z,10.23
2022-10-11T19:29:06.667Z,8.30
2022-10-11T19:31:35.954Z,8.17
2022-10-11T19:34:03.454Z,8.80
2022-10-11T19:36:35.577Z,10.73
2022-10-11T19:39:05.345Z,10.37
2022-10-11T19:41:32.875Z,10.93
2022-10-11T19:44:00.355Z,12.57
2022-10-11T19:49:18.265Z,11.90
2022-10-11T19:51:45.893Z,9.30
2022-10-11T19:54:14.916Z,9.77
2022-10-11T19:56:42.932Z,11.60
2022-10-11T19:59:11.522Z,13.70
2022-10-11T20:01:40.705Z,11.03
2022-10-11T20:04:22.906Z,15.47
2022-10-11T20:06:54.849Z,9.33
2022-10-11T20:09:29.486Z,8.23
2022-10-11T20:11:57.385Z,9.43
2022-10-11T20:14:24.552Z,10.37
2022-10-11T20:16:52.214Z,9.00
2022-10-11T20:19:19.880Z,10.07
2022-10-11T20:21:47.975Z,10.53
2022-10-11T20:24:14.928Z,11.50
2022-10-11T20:26:41.928Z,9.93
2022-10-11T20:29:08.958Z,11.00
2022-10-11T20:31:41.013Z,10.90
2022-10-11T20:34:09.351Z,12.27
2022-10-11T20:36:36.684Z,15.37
2022-10-11T20:39:05.562Z,11.90
2022-10-11T20:41:37.314Z,13.90
2022-10-11T20:44:05.512Z,19.43
2022-10-11T20:46:34.990Z,17.47
2022-10-11T20:49:05.911Z,18.40
2022-10-11T20:51:35.123Z,14.53
2022-10-11T20:54:04.493Z,18.37
2022-10-11T20:56:32.199Z,12.50
2022-10-11T20:58:59.319Z,12.20
2022-10-11T21:01:32.078Z,15.07
2022-10-11T21:04:01.022Z,12.20
2022-10-11T21:06:29.554Z,9.93
2022-10-11T21:08:59.297Z,11.13
2022-10-11T21:11:32.093Z,11.43
2022-10-11T21:14:01.321Z,10.07
2022-10-11T21:16:29.195Z,13.60
2022-10-11T21:18:58.312Z,10.50
2022-10-11T21:21:26.866Z,14.20
2022-10-11T21:23:59.361Z,10.77
2022-10-11T21:26:27.572Z,11.70
2022-10-11T21:28:55.107Z,11.90
2022-10-11T21:31:23.202Z,8.57
2022-10-11T21:33:50.180Z,10.53
2022-10-11T21:36:21.987Z,11.63
2022-10-11T21:38:50.421Z,11.90
2022-10-11T21:41:23.245Z,14.90
2022-10-11T21:43:50.781Z,11.50
2022-10-11T21:46:19.350Z,12.13
2022-10-11T21:48:47.472Z,11.10
2022-10-11T21:51:26.651Z,9.77
2022-10-11T21:53:56.547Z,12.75
2022-10-11T21:56:23.846Z,9.65
2022-10-11T21:58:51.538Z,12.52
2022-10-11T22:01:20.152Z,8.63
2022-10-11T22:03:48.247Z,14.03
2022-10-11T22:06:16.447Z,9.68
2022-10-11T22:08:43.468Z,9.98
2022-10-11T22:11:10.998Z,12.57
2022-10-11T22:13:38.736Z,9.10
2022-10-11T22:16:07.690Z,9.40
2022-10-11T22:18:34.670Z,8.17
2022-10-11T22:21:13.666Z,13.73
2022-10-11T22:23:48.148Z,10.88
2022-10-11T22:26:17.831Z,11.63
2022-10-11T22:28:48.349Z,8.27
2022-10-11T22:31:17.151Z,8.57
2022-10-11T22:36:13.344Z,8.25
2022-10-11T22:38:42.266Z,8.45
2022-10-11T22:41:10.137Z,10.23
2022-10-11T22:43:37.509Z,8.10
2022-10-11T22:46:06.103Z,11.20
2022-10-11T22:48:33.347Z,11.55
2022-10-11T22:51:01.114Z,10.27
2022-10-11T22:53:28.398Z,11.43
2022-10-11T22:55:55.455Z,13.68
2022-10-11T22:58:22.544Z,10.63
2022-10-11T23:00:49.557Z,10.00
2022-10-11T23:03:17.857Z,17.00
2022-10-11T23:05:53.675Z,8.45
2022-10-11T23:08:20.651Z,9.25
2022-10-11T23:10:47.656Z,14.02
2022-10-11T23:13:14.666Z,8.80
2022-10-11T23:15:41.655Z,8.63
2022-10-11T23:18:08.671Z,8.07
2022-10-11T23:20:35.650Z,13.50
2022-10-11T23:23:02.621Z,8.20
2022-10-11T23:25:29.590Z,8.57
2022-10-11T23:27:56.557Z,8.35
2022-10-11T23:30:23.475Z,7.10
2022-10-11T23:32:50.442Z,14.43
2022-10-11T23:35:17.371Z,10.25
2022-10-11T23:37:44.353Z,8.60
2022-10-11T23:40:11.453Z,10.40
2022-10-11T23:42:38.459Z,12.52
2022-10-11T23:45:05.986Z,8.50
2022-10-11T23:47:33.011Z,13.10
2022-10-11T23:49:59.984Z,7.70
2022-10-11T23:52:26.902Z,11.05
2022-10-11T23:54:53.825Z,9.50
2022-10-11T23:57:20.847Z,10.45
2022-10-11T23:59:47.818Z,10.93
